Condat sur Vézère

LFDZ · Dordoña, Nouvelle-Aquitaine, Francia

METAR pasados LFDZ · Condat sur Vézère

A continuación puedes ver los METAR de los últimos días. Selecciona un año para ver los METAR más antiguos, desde el año 2007 en adelante.

25 de mayo de 2024

Hora Código Tiempo Temp. Visibilidad Cielo nuboso Viento METAR/SPECI
16:00
V
22 °C 10 km+ - 150° 150° 6 kt METAR LFSL 251400Z AUTO 15006KT 100V230 CAVOK 22/07 Q1016 NOSIG
15:30
V
22 °C 10 km+ - Var Var 3 kt METAR LFSL 251330Z AUTO VRB03KT CAVOK 22/07 Q1016 NOSIG
15:00
V
21 °C 10 km+ - 170° 170° 3 kt METAR LFSL 251300Z AUTO 17003KT 120V220 CAVOK 21/07 Q1017 NOSIG
14:30
V
21 °C 10 km+ - 160° 160° 4 kt METAR LFSL 251230Z AUTO 16004KT 090V200 CAVOK 21/07 Q1016 NOSIG
14:00
V
21 °C 10 km+ - 160° 160° 5 kt METAR LFSL 251200Z AUTO 16005KT 060V210 CAVOK 21/08 Q1016 NOSIG
13:30
V
20 °C 10 km+ - Var Var 3 kt METAR LFSL 251130Z AUTO VRB03KT CAVOK 20/09 Q1017 NOSIG
13:00
V
20 °C 10 km+ - 180° 180° 5 kt METAR LFSL 251100Z AUTO 18005KT 130V240 CAVOK 20/07 Q1017 NOSIG
12:30
V
20 °C 10 km+ - 180° 180° 5 kt METAR LFSL 251030Z AUTO 18005KT 120V250 CAVOK 20/08 Q1017 NOSIG
12:00
V
19 °C 10 km+ - 150° 150° 5 kt METAR LFSL 251000Z AUTO 15005KT 070V210 CAVOK 19/08 Q1017 NOSIG
11:30
V
18 °C 10 km+ - 170° 170° 5 kt METAR LFSL 250930Z AUTO 17005KT 110V210 CAVOK 18/08 Q1017 NOSIG
11:00
V
17 °C 10 km+ - 160° 160° 5 kt METAR LFSL 250900Z AUTO 16005KT 110V200 CAVOK 17/09 Q1017 NOSIG
10:30
V
16 °C 10 km+ - 150° 150° 4 kt METAR LFSL 250830Z AUTO 15004KT 100V210 CAVOK 16/09 Q1018 NOSIG
10:00
V
14 °C 10 km+ - 130° 130° 4 kt METAR LFSL 250800Z AUTO 13004KT CAVOK 14/09 Q1018 NOSIG
09:30
V
13 °C 10 km+ - 110° 110° 5 kt METAR LFSL 250730Z AUTO 11005KT CAVOK 13/09 Q1018 NOSIG
09:00
V
12 °C 10 km+ - 140° 140° 5 kt METAR LFSL 250700Z AUTO 14005KT 120V180 CAVOK 12/09 Q1017 NOSIG
08:30
V
12 °C 10 km+ - 120° 120° 5 kt METAR LFSL 250630Z AUTO 12005KT CAVOK 12/09 Q1017 NOSIG
08:00
V
11 °C 10 km+ - 110° 110° 4 kt METAR LFSL 250600Z AUTO 11004KT CAVOK 11/09 Q1017 NOSIG
07:30
V
9 °C 10 km+ - 120° 120° 3 kt METAR LFSL 250530Z AUTO 12003KT CAVOK 09/09 Q1017 NOSIG
07:00
V
9 °C 10 km+ - Var Var 2 kt METAR LFSL 250500Z AUTO VRB02KT CAVOK 09/08 Q1017 NOSIG
06:30
V
8 °C 10 km+ - Var Var 1 kt METAR LFSL 250430Z AUTO VRB01KT CAVOK 08/07 Q1017 NOSIG
06:00
V
7 °C 10 km+ - Var Var 2 kt METAR LFSL 250400Z AUTO VRB02KT CAVOK 07/06 Q1017 NOSIG
05:30
V
7 °C 10 km+ - 150° 150° 1 kt METAR LFSL 250330Z AUTO 15001KT CAVOK 07/06 Q1017 NOSIG
05:00
V
7 °C 10 km+ - 360° 360° 0 kt METAR LFSL 250300Z AUTO 00000KT CAVOK 07/06 Q1018 NOSIG
04:30
V
7 °C 10 km+ - 360° 360° 0 kt METAR LFSL 250230Z AUTO 00000KT CAVOK 07/06 Q1018
04:00
V
7 °C 10 km+ - 360° 360° 0 kt METAR LFSL 250200Z AUTO 00000KT CAVOK 07/06 Q1018
03:30
V
7 °C 10 km+ - 360° 360° 0 kt METAR LFSL 250130Z AUTO 00000KT CAVOK 07/06 Q1018
03:00
V
7 °C 10 km+ - 360° 360° 0 kt METAR LFSL 250100Z AUTO 00000KT CAVOK 07/06 Q1019
02:30
V
7 °C 10 km+ - 360° 360° 0 kt METAR LFSL 250030Z AUTO 00000KT CAVOK 07/07 Q1019
02:00
V
8 °C 10 km+ - 360° 360° 0 kt METAR LFSL 250000Z AUTO 00000KT CAVOK 08/07 Q1019
01:30
V
8 °C 10 km+ - 360° 360° 0 kt METAR LFSL 242330Z AUTO 00000KT CAVOK 08/07 Q1019
01:00
V
8 °C 10 km+ - 360° 360° 0 kt METAR LFSL 242300Z AUTO 00000KT CAVOK 08/07 Q1019
00:30
V
9 °C 10 km+ - 360° 360° 0 kt METAR LFSL 242230Z AUTO 00000KT CAVOK 09/08 Q1019
00:00
V
9 °C 10 km+ - 360° 360° 0 kt METAR LFSL 242200Z AUTO 00000KT CAVOK 09/08 Q1019

24 de mayo de 2024

Hora Código Tiempo Temp. Visibilidad Cielo nuboso Viento METAR/SPECI
23:30
V
10 °C 10 km+ - 360° 360° 0 kt METAR LFSL 242130Z AUTO 00000KT CAVOK 10/09 Q1019
23:00
V
10 °C 10 km+ - 360° 360° 0 kt METAR LFSL 242100Z AUTO 00000KT CAVOK 10/09 Q1019
22:30
V
11 °C 10 km+ - 360° 360° 0 kt METAR LFSL 242030Z AUTO 00000KT CAVOK 11/09 Q1019
22:00
V
12 °C 10 km+ - 360° 360° 0 kt METAR LFSL 242000Z AUTO 00000KT CAVOK 12/09 Q1019 NOSIG
21:30
V
14 °C 10 km+ - Var Var 1 kt METAR LFSL 241930Z AUTO VRB01KT CAVOK 14/10 Q1018 NOSIG
21:00
V
15 °C 10 km+ - 320° 320° 4 kt METAR LFSL 241900Z AUTO 32004KT CAVOK 15/09 Q1018 NOSIG
20:30
V
16 °C 10 km+ - 320° 320° 7 kt METAR LFSL 241830Z AUTO 32007KT CAVOK 16/09 Q1018 NOSIG
20:00
V
18 °C 10 km+ - 340° 340° 8 kt METAR LFSL 241800Z AUTO 34008KT CAVOK 18/09 Q1018 NOSIG
19:30
V
18 °C 10 km+ 7.600 ft 340° 340° 8 kt METAR LFSL 241730Z AUTO 34008KT 9999 FEW046 BKN076 18/09 Q1018 NOSIG
19:00
V
19 °C 10 km+ - 290° 290° 6 kt METAR LFSL 241700Z AUTO 29006KT 230V330 9999 SCT045 SCT078 19/07 Q1018 TEMPO 4000 -SHRA BKN040TCU
18:30
V
19 °C 10 km+ - 300° 300° 6 kt METAR LFSL 241630Z AUTO 30006KT 240V350 CAVOK 19/09 Q1018 TEMPO 4000 -SHRA BKN040TCU
18:00
V
20 °C 10 km+ - 300° 300° 6 kt METAR LFSL 241600Z AUTO 30006KT 230V320 CAVOK 20/07 Q1018 TEMPO 4000 -SHRA BKN040TCU
17:30
V
19 °C 10 km+ 6.200 ft 310° 310° 8 kt METAR LFSL 241530Z AUTO 31008KT 270V340 9999 SCT045 BKN062 OVC072 19/08 Q1018 TEMPO 4000 -SHRA BKN040TCU
17:00
V
19 °C 10 km+ 4.800 ft 320° 320° 7 kt METAR LFSL 241500Z AUTO 32007KT 280V360 9999 BKN048 BKN056 BKN066 19/08 Q1018 TEMPO 4000 -SHRA BKN040TCU
16:30
V
18 °C 10 km+ 5.800 ft 340° 340° 4 kt METAR LFSL 241430Z AUTO 34004KT 270V050 9999 SCT044 BKN058 BKN078 18/08 Q1018 TEMPO 4000 -SHRA BKN040TCU
16:00
V
18 °C 10 km+ 7.800 ft 290° 290° 4 kt METAR LFSL 241400Z AUTO 29004KT 210V340 9999 FEW038 BKN078 18/09 Q1019 TEMPO 4000 -SHRA BKN030TCU
15:30
V
17 °C 10 km+ 7.600 ft 310° 310° 5 kt METAR LFSL 241330Z AUTO 31005KT 260V350 9999 SCT045 OVC076 17/08 Q1019 TEMPO 4000 -SHRA BKN030TCU
15:00
V
18 °C 10 km+ - Var Var 3 kt METAR LFSL 241300Z AUTO VRB03KT CAVOK 18/08 Q1019 TEMPO 4000 -SHRA BKN030TCU
14:30
V
17 °C 10 km+ 7.200 ft 340° 340° 5 kt METAR LFSL 241230Z AUTO 34005KT 300V010 9999 FEW043 BKN072 BKN150 17/07 Q1019 TEMPO 4000 -SHRA BKN030TCU
14:00
V
17 °C 10 km+ 7.600 ft Var Var 4 kt METAR LFSL 241200Z AUTO VRB04KT 9999 FEW041 BKN076 17/08 Q1019 NOSIG
13:30
V
17 °C 10 km+ 7.400 ft Var Var 3 kt METAR LFSL 241130Z AUTO VRB03KT 9999 FEW027 BKN074 17/10 Q1019 NOSIG
13:00
V
16 °C 10 km+ - Var Var 2 kt METAR LFSL 241100Z AUTO VRB02KT CAVOK 16/07 Q1020 NOSIG
12:30
V
15 °C 10 km+ - Var Var 3 kt METAR LFSL 241030Z AUTO VRB03KT CAVOK 15/08 Q1020 NOSIG
12:00
V
15 °C 10 km+ 6.600 ft Var Var 3 kt METAR LFSL 241000Z AUTO VRB03KT 9999 FEW014 OVC066 15/09 Q1020 NOSIG
11:30
V
14 °C 10 km+ - Var Var 2 kt METAR LFSL 240930Z AUTO VRB02KT 9999 //////TCU 14/09 Q1020 BECMG BKN020
11:00
V
13 °C 10 km+ 3.900 ft Var Var 2 kt METAR LFSL 240900Z AUTO VRB02KT 9999 OVC039 13/10 Q1020 NOSIG
10:30
M
13 °C 10 km+ 1.300 ft Var Var 2 kt METAR LFSL 240830Z AUTO VRB02KT 9999 BKN013 BKN030 BKN060 13/10 Q1020 BECMG BKN020
10:00
V
12 °C 10 km+ 5.800 ft Var Var 2 kt METAR LFSL 240800Z AUTO VRB02KT 9999 FEW008 BKN058 12/10 Q1020 NOSIG
09:30
I
12 °C 10 km+ 800 ft Var Var 2 kt METAR LFSL 240730Z AUTO VRB02KT 9999 BKN008 OVC060 12/10 Q1020 BECMG BKN020
09:00
I
12 °C 10 km+ 500 ft Var Var 1 kt METAR LFSL 240700Z AUTO VRB01KT 9999 BKN005 OVC009 12/11 Q1020 BECMG BKN020
08:30
L
11 °C 10 km+ - Var Var 2 kt METAR LFSL 240630Z AUTO VRB02KT 9999 VV/// 11/10 Q1020 BECMG BKN020
08:00
L
11 °C 1,1 km - Var Var 1 kt METAR LFSL 240600Z AUTO VRB01KT 1100 R29/1500N BR VV/// 11/10 Q1020 BECMG 9999 NSW BKN005
07:30
L
10 °C 600 m - Var Var 1 kt METAR LFSL 240530Z AUTO VRB01KT 0700 0600 R29/0900U FG VV/// 10/09 Q1020 BECMG 9999 NSW BKN005
07:00
L
10 °C 250 m - Var Var 1 kt METAR LFSL 240500Z AUTO VRB01KT 0250 R29/0350U FG VV/// 10/09 Q1020 BECMG 9999 NSW BKN005
06:30
L
9 °C 250 m - Var Var 2 kt METAR LFSL 240430Z AUTO VRB02KT 0250 R29/0250N FG VV/// 09/09 Q1019 TEMPO 0500 FG
06:00
L
9 °C 450 m - 130° 130° 2 kt METAR LFSL 240400Z AUTO 13002KT 0450 R29/0500N FG VV/// 09/09 Q1019 NOSIG
05:30
L
9 °C 650 m - 120° 120° 3 kt METAR LFSL 240330Z AUTO 12003KT 0700 0650 R29/0650D FG VV/// 09/09 Q1019 TEMPO 0500 FG
05:00
L
9 °C 500 m - 190° 190° 1 kt METAR LFSL 240300Z AUTO 19001KT 0500 R29/1300U FG VV/// 09/08 Q1019 NOSIG
04:30
L
9 °C 5 km - 360° 360° 0 kt METAR LFSL 240230Z AUTO 00000KT 5000 BR VV/// 09/09 Q1019
04:00
M
10 °C 10 km+ 1.500 ft Var Var 2 kt METAR LFSL 240200Z AUTO VRB02KT 9999 BKN015 BKN028 BKN076 10/09 Q1019
03:30
V
10 °C 10 km+ - 360° 360° 0 kt METAR LFSL 240130Z AUTO 00000KT 9999 ///TCU 10/09 Q1019
03:00
V
10 °C 10 km+ 7.800 ft 130° 130° 1 kt METAR LFSL 240100Z AUTO 13001KT 9999 FEW017 SCT045 OVC078 10/09 Q1019
02:30
M
10 °C 10 km+ 2.000 ft Var Var 2 kt METAR LFSL 240030Z AUTO VRB02KT 9999 BKN020 10/09 Q1020
02:00
V
10 °C 10 km+ - 360° 360° 0 kt METAR LFSL 240000Z AUTO 00000KT 9999 FEW019 10/09 Q1019
01:30
V
11 °C 10 km+ 5.000 ft Var Var 1 kt METAR LFSL 232330Z AUTO VRB01KT 9999 SCT018 BKN050 BKN180 11/10 Q1020
01:00
V
11 °C 10 km+ - Var Var 2 kt METAR LFSL 232300Z AUTO VRB02KT CAVOK 11/10 Q1020
00:30
V
12 °C 10 km+ - Var Var 2 kt METAR LFSL 232230Z AUTO VRB02KT CAVOK 12/10 Q1020
00:00
V
12 °C 10 km+ - Var Var 1 kt METAR LFSL 232200Z AUTO VRB01KT CAVOK 12/11 Q1019

23 de mayo de 2024

Hora Código Tiempo Temp. Visibilidad Cielo nuboso Viento METAR/SPECI
23:30
V
13 °C 10 km+ - Var Var 2 kt METAR LFSL 232130Z AUTO VRB02KT CAVOK 13/11 Q1020
23:00
V
13 °C 10 km+ - 280° 280° 3 kt METAR LFSL 232100Z AUTO 28003KT 240V310 CAVOK 13/11 Q1019
22:30
V
13 °C 10 km+ - Var Var 2 kt METAR LFSL 232030Z AUTO VRB02KT CAVOK 13/11 Q1019
22:00
V
13 °C 10 km+ - Var Var 2 kt METAR LFSL 232000Z AUTO VRB02KT 9999 //////TCU 13/11 Q1019 TEMPO 3000 SHRA BKN010 FEW020CB BKN025TCU
21:30
V
13 °C 10 km+ - Var Var 3 kt METAR LFSL 231930Z AUTO VRB03KT 9999 //////TCU 13/11 Q1019 TEMPO 3000 SHRA BKN010 FEW020CB BKN025TCU
21:00
V
14 °C 10 km+ - 260° 260° 3 kt METAR LFSL 231900Z AUTO 26003KT 210V310 9999 //////TCU 14/11 Q1019 TEMPO 3000 SHRA BKN010 FEW020CB BKN025TCU
20:30
V
14 °C 10 km+ - 240° 240° 3 kt METAR LFSL 231830Z AUTO 24003KT 160V290 9999 //////CB 14/10 Q1019 TEMPO 3000 SHRA BKN010 FEW020CB BKN025TCU
20:00
V
14 °C 10 km+ 6.000 ft Var Var 3 kt METAR LFSL 231800Z AUTO VRB03KT 9999 FEW046/// BKN060/// BKN070/// ///CB 14/10 Q1018 TEMPO 3000 SHRA BKN010 FEW020CB BKN025TCU
19:30
V
15 °C 10 km+ - 240° 240° 6 kt METAR LFSL 231730Z AUTO 24006KT 180V290 9999 ///CB 15/10 Q1018 TEMPO 3000 SHRA BKN010 FEW020CB BKN025TCU
19:00
V
16 °C 10 km+ - 220° 220° 6 kt METAR LFSL 231700Z AUTO 22006KT 180V290 9999 ///CB 16/10 Q1018 TEMPO 24015G25KT 3000 SHRA BKN010 FEW020CB BKN025TCU
18:30
V
16 °C 10 km+ - 250° 250° 5 kt METAR LFSL 231630Z AUTO 25005KT 190V300 9999 FEW031/// SCT058/// ///CB 16/11 Q1018 TEMPO 24015G25KT 3000 SHRA BKN010 FEW020CB BKN025TCU
18:00
V
16 °C 10 km+ - 230° 230° 4 kt METAR LFSL 231600Z AUTO 23004KT 180V290 9999 -RA FEW049/// SCT094/// ///CB 16/11 Q1018 TEMPO 24015G25KT 3000 SHRA BKN010 FEW020CB BKN025TCU
17:30
V
16 °C 10 km+ - 210° 210° 4 kt METAR LFSL 231530Z AUTO 21004KT 170V250 9999 //////CB 16/10 Q1018 TEMPO 24015G25KT 3000 SHRA BKN010 FEW020CB BKN025TCU
17:00
V
17 °C 10 km+ - 190° 190° 3 kt METAR LFSL 231500Z AUTO 19003KT 130V230 9999 //////CB 17/10 Q1018 TEMPO 24015G25KT 3000 SHRA BKN010 FEW020CB BKN025TCU
16:30
V
17 °C 10 km+ - 240° 240° 4 kt METAR LFSL 231430Z AUTO 24004KT 170V290 9999 //////CB 17/09 Q1018 TEMPO 24015G25KT 2000 SHRA BKN010 FEW020CB BKN025TCU
16:00
V
17 °C 10 km+ 7.000 ft 260° 260° 3 kt METAR LFSL 231400Z AUTO 26003KT 170V320 9999 FEW024/// BKN070/// BKN082/// //////CB 17/09 Q1018 TEMPO 24015G25KT 2000 SHRA BKN010 FEW020CB BKN025TCU
15:30
M
17 °C 10 km+ 2.400 ft 280° 280° 4 kt METAR LFSL 231330Z AUTO 28004KT 230V360 9999 BKN024/// BKN033/// BKN043/// ///CB 17/11 Q1018 TEMPO 24015G25KT 2000 SHRA BKN010 FEW020CB BKN025TCU
15:00
V
16 °C 10 km+ 3.400 ft 350° 350° 5 kt METAR LFSL 231300Z AUTO 35005KT 300V030 9999 SCT027/// BKN034/// BKN043/// //////CB 16/10 Q1018 TEMPO 24015G25KT 2000 SHRA BKN010 FEW020CB BKN025TCU
14:30
V
16 °C 10 km+ 7.200 ft 190° 190° 4 kt METAR LFSL 231230Z AUTO 19004KT 150V260 9999 FEW026/// SCT040/// BKN072/// ///TCU 16/11 Q1018 TEMPO 24015G25KT 2000 SHRA SCT025CB
14:00
M
16 °C 10 km+ 2.000 ft 190° 190° 4 kt METAR LFSL 231200Z AUTO 19004KT 140V270 9999 BKN020/// BKN030/// BKN036/// //////TCU 16/10 Q1019 TEMPO 24015G25KT 2000 SHRA SCT025CB
13:30
M
16 °C 10 km+ 2.100 ft 160° 160° 6 kt METAR LFSL 231130Z AUTO 16006KT 110V200 9999 BKN021/// BKN034/// BKN052/// ///TCU 16/11 Q1019 TEMPO 24015G25KT 1500 SHRA SCT025CB
13:00
M
15 °C 10 km+ 1.300 ft 200° 200° 4 kt METAR LFSL 231100Z AUTO 20004KT 110V260 9999 BKN013/// BKN022/// BKN076/// ///CB 15/11 Q1019 TEMPO 24015G25KT 1500 SHRA
12:30
M
14 °C 7 km 4.800 ft 200° 200° 5 kt METAR LFSL 231030Z AUTO 20005KT 140V300 7000 FEW033/// SCT039/// BKN048/// //////CB 14/12 Q1019 TEMPO 24015G25KT 1500 SHRA BKN010 FEW020CB BKN025TCU
12:00
V
13 °C 9 km 3.400 ft 190° 190° 6 kt METAR LFSL 231000Z AUTO 19006KT 150V230 9000 RA FEW016/// SCT022/// BKN034/// ///CB 13/11 Q1019 TEMPO 24015G25KT 1500 SHRA BKN010 FEW020CB BKN025TCU
11:30
M
14 °C 10 km+ 1.700 ft 180° 180° 4 kt METAR LFSL 230930Z AUTO 18004KT 120V260 9999 BKN017/// BKN031/// BKN045/// //////CB 14/11 Q1019 TEMPO 24015G25KT 1500 SHRA BKN010 FEW020CB BKN025TCU
11:00
M
14 °C 10 km+ 2.100 ft Var Var 2 kt METAR LFSL 230900Z AUTO VRB02KT 9999 SCT016/// BKN021/// BKN027/// //////CB 14/10 Q1019 TEMPO 24015G25KT 1500 SHRA BKN010 FEW020CB BKN025TCU
10:30
M
13 °C 10 km+ 2.800 ft 140° 140° 3 kt METAR LFSL 230830Z AUTO 14003KT 100V200 9999 FEW011/// SCT019/// BKN028/// //////TCU 13/10 Q1019 TEMPO 24015G25KT 1500 SHRA SCT025CB
10:00
M
13 °C 10 km+ 2.100 ft 130° 130° 4 kt METAR LFSL 230800Z AUTO 13004KT 090V180 9999 FEW009 BKN021 BKN027 13/11 Q1019
09:30
I
12 °C 10 km+ 700 ft 140° 140° 3 kt METAR LFSL 230730Z AUTO 14003KT 100V180 9999 BKN007 BKN017 12/10 Q1019 TEMPO 24015G25KT 1500 SHRA SCT025CB
09:00
I
12 °C 10 km+ 500 ft 130° 130° 6 kt METAR LFSL 230700Z AUTO 13006KT 100V180 9999 BKN005 BKN009 12/10 Q1019 TEMPO 1500 SHRA FEW020CB BKN025TCU
08:30
L
11 °C 10 km+ 300 ft 120° 120° 5 kt METAR LFSL 230630Z AUTO 12005KT 9999 BKN003 OVC038 11/10 Q1019 TEMPO 1500 SHRA FEW020CB BKN025TCU
08:00
V
11 °C 10 km+ 3.700 ft 130° 130° 4 kt METAR LFSL 230600Z AUTO 13004KT 9999 SCT003 BKN037 BKN068 11/10 Q1019 TEMPO 2000 SHRA BKN004 BKN010TCU
Cambiar esta información